createdAt,value
2023-01-23T00:01:31.895Z,99918.59
2023-01-23T00:03:59.076Z,99915.13
2023-01-23T00:06:26.985Z,99913.47
2023-01-23T00:08:56.174Z,99914.44
2023-01-23T00:11:27.746Z,99915.22
2023-01-23T00:13:54.267Z,99917.75
2023-01-23T00:16:24.205Z,99912.66
2023-01-23T00:18:51.791Z,99921.41
2023-01-23T00:21:24.896Z,99912.69
2023-01-23T00:23:54.931Z,99914.38
2023-01-23T00:26:25.865Z,99909.28
2023-01-23T00:28:53.783Z,99905.81
2023-01-23T00:31:27.959Z,99907.56
2023-01-23T00:34:05.511Z,99920.72
2023-01-23T00:36:38.852Z,99913.94
2023-01-23T00:39:14.385Z,99922.66
2023-01-23T00:41:41.047Z,99917.34
2023-01-23T00:44:07.565Z,99912.22
2023-01-23T00:46:34.899Z,99910.44
2023-01-23T00:49:01.613Z,99917.41
2023-01-23T00:51:28.277Z,99918.34
2023-01-23T00:53:56.177Z,99924.47
2023-01-23T00:56:23.031Z,99923.63
2023-01-23T00:58:49.785Z,99927.97
2023-01-23T01:01:17.019Z,99924.47
2023-01-23T01:03:44.334Z,99926.22
2023-01-23T01:06:12.514Z,99926.97
2023-01-23T01:08:39.347Z,99928.59
2023-01-23T01:11:06.612Z,99921.56
2023-01-23T01:13:33.450Z,99930.09
2023-01-23T01:16:01.984Z,99935.50
2023-01-23T01:18:30.089Z,99934.81
2023-01-23T01:20:57.280Z,99937.41
2023-01-23T01:23:23.967Z,99935.78
2023-01-23T01:25:50.519Z,99940.06
2023-01-23T01:28:17.375Z,99931.31
2023-01-23T01:30:44.078Z,99940.88
2023-01-23T01:33:11.144Z,99940.75
2023-01-23T01:35:41.192Z,99940.63
2023-01-23T01:38:08.876Z,99932.69
2023-01-23T01:40:36.960Z,99938.69
2023-01-23T01:43:09.611Z,99932.72
2023-01-23T01:46:26.191Z,99944.88
2023-01-23T01:49:01.752Z,99947.47
2023-01-23T01:51:52.674Z,99956.19
2023-01-23T01:54:46.889Z,99953.88
2023-01-23T01:57:22.540Z,99967.88
2023-01-23T02:00:22.022Z,99961.91
2023-01-23T02:03:01.317Z,99964.47
2023-01-23T02:05:37.877Z,99965.22
2023-01-23T02:08:20.130Z,99966.22
2023-01-23T02:10:47.216Z,99977.44
2023-01-23T02:13:30.276Z,99973.09
2023-01-23T02:15:59.810Z,99964.44
2023-01-23T02:18:29.952Z,99973.97
2023-01-23T02:21:01.551Z,99975.69
2023-01-23T02:24:16.789Z,99975.63
2023-01-23T02:26:46.563Z,99973.91
2023-01-23T02:29:15.469Z,99976.56
2023-01-23T02:31:45.832Z,99980.03
2023-01-23T02:34:14.729Z,99979.22
2023-01-23T02:36:47.395Z,99987.81
2023-01-23T02:39:18.471Z,99986.91
2023-01-23T02:41:51.308Z,99980.91
2023-01-23T02:44:28.550Z,99975.78
2023-01-23T02:47:05.059Z,99980.84
2023-01-23T02:49:31.723Z,99979.09
2023-01-23T02:51:58.357Z,99981.56
2023-01-23T02:54:25.642Z,99977.34
2023-01-23T02:56:52.268Z,99977.38
2023-01-23T02:59:37.334Z,99976.53
2023-01-23T03:02:05.378Z,99980.97
2023-01-23T03:04:32.086Z,99992.22
2023-01-23T03:06:59.196Z,99991.22
2023-01-23T03:09:26.638Z,99996.28
2023-01-23T03:11:53.304Z,99995.28
2023-01-23T03:14:23.378Z,99994.28
2023-01-23T03:16:51.461Z,99988.25
2023-01-23T03:19:24.435Z,99983.91
2023-01-23T03:21:51.882Z,99986.50
2023-01-23T03:24:20.256Z,99994.41
2023-01-23T03:26:48.655Z,99998.03
2023-01-23T03:29:37.963Z,99997.34
2023-01-23T03:32:05.695Z,99995.69
2023-01-23T03:34:32.464Z,99989.59
2023-01-23T03:37:00.364Z,99992.97
2023-01-23T03:39:46.184Z,99994.69
2023-01-23T03:42:12.697Z,100002.53
2023-01-23T03:44:39.321Z,100003.38
2023-01-23T03:47:07.121Z,100004.13
2023-01-23T03:49:33.781Z,99998.81
2023-01-23T03:52:00.715Z,100001.38
2023-01-23T03:54:27.669Z,99991.06
2023-01-23T03:56:54.691Z,100002.34
2023-01-23T03:59:21.323Z,99998.91
2023-01-23T04:01:48.186Z,99999.09
2023-01-23T04:04:14.775Z,100008.69
2023-01-23T04:06:41.221Z,100009.50
2023-01-23T04:09:07.729Z,100000.72
2023-01-23T04:11:34.202Z,100002.34
2023-01-23T04:14:00.723Z,99994.53
2023-01-23T04:16:28.631Z,100001.44
2023-01-23T04:18:55.286Z,99998.09
2023-01-23T04:21:22.034Z,99998.06
2023-01-23T04:23:48.472Z,99998.94
2023-01-23T04:26:15.364Z,100010.94
2023-01-23T04:28:41.894Z,99998.66
2023-01-23T04:31:09.485Z,100008.22
2023-01-23T04:33:36.338Z,100015.09
2023-01-23T04:36:06.755Z,100009.84
2023-01-23T04:38:33.873Z,100003.78
2023-01-23T04:41:00.711Z,100000.41
2023-01-23T04:43:27.349Z,100005.63
2023-01-23T04:45:56.128Z,100008.09
2023-01-23T04:48:23.852Z,100014.03
2023-01-23T04:50:51.396Z,100011.47
2023-01-23T04:53:18.249Z,100008.97
2023-01-23T04:55:49.143Z,100015.16
2023-01-23T04:58:17.987Z,100022.16
2023-01-23T05:00:44.794Z,100012.69
2023-01-23T05:03:11.339Z,100013.53
2023-01-23T05:05:37.801Z,100007.41
2023-01-23T05:08:04.719Z,100004.00
2023-01-23T05:10:31.602Z,100000.53
2023-01-23T05:12:58.074Z,100003.09
2023-01-23T05:15:24.529Z,100009.03
2023-01-23T05:17:51.058Z,100007.06
2023-01-23T05:20:17.929Z,99998.38
2023-01-23T05:22:52.296Z,99999.19
2023-01-23T05:25:29.139Z,99996.53
2023-01-23T05:27:55.731Z,100005.16
2023-01-23T05:30:23.375Z,100002.50
2023-01-23T05:32:50.420Z,100009.47
2023-01-23T05:35:17.400Z,100010.44
2023-01-23T05:37:43.952Z,100009.72
2023-01-23T05:40:13.312Z,100009.78
2023-01-23T05:42:39.843Z,100009.81
2023-01-23T05:45:06.998Z,100011.56
2023-01-23T05:47:33.643Z,100005.44
2023-01-23T05:50:01.001Z,100005.31
2023-01-23T05:52:28.211Z,100009.69
2023-01-23T05:54:54.869Z,100008.78
2023-01-23T05:57:22.267Z,100009.56
2023-01-23T05:59:48.720Z,100011.50
2023-01-23T06:02:15.869Z,100009.88
2023-01-23T06:04:42.418Z,100011.63
2023-01-23T06:07:15.081Z,100011.72
2023-01-23T06:09:41.621Z,100012.44
2023-01-23T06:12:09.682Z,100019.28
2023-01-23T06:14:36.620Z,100021.84
2023-01-23T06:17:03.539Z,100031.38
2023-01-23T06:19:30.093Z,100030.63
2023-01-23T06:21:56.598Z,100040.16
2023-01-23T06:24:23.091Z,100040.97
2023-01-23T06:26:49.749Z,100043.53
2023-01-23T06:29:16.255Z,100044.31
2023-01-23T06:31:42.912Z,100053.81
2023-01-23T06:34:09.446Z,100051.13
2023-01-23T06:36:36.128Z,100057.19
2023-01-23T06:39:02.996Z,100053.72
2023-01-23T06:41:29.544Z,100066.78
2023-01-23T06:43:56.496Z,100068.47
2023-01-23T06:46:23.811Z,100072.72
2023-01-23T06:48:52.329Z,100082.19
2023-01-23T06:51:19.072Z,100092.59
2023-01-23T06:53:45.570Z,100102.97
2023-01-23T06:56:12.736Z,100098.63
2023-01-23T06:58:39.384Z,100102.13
2023-01-23T07:01:12.127Z,100102.03
2023-01-23T07:03:38.883Z,100104.53
2023-01-23T07:06:07.097Z,100099.38
2023-01-23T07:08:34.688Z,100103.78
2023-01-23T07:11:02.640Z,100103.00
2023-01-23T07:13:30.260Z,100109.00
2023-01-23T07:15:56.940Z,100115.94
2023-01-23T07:18:25.077Z,100120.22
2023-01-23T07:20:51.549Z,100124.63
2023-01-23T07:23:18.046Z,100130.69
2023-01-23T07:25:44.723Z,100124.53
2023-01-23T07:28:11.562Z,100135.88
2023-01-23T07:30:38.442Z,100139.38
2023-01-23T07:33:06.387Z,100139.31
2023-01-23T07:35:33.365Z,100138.44
2023-01-23T07:37:59.885Z,100135.72
2023-01-23T07:40:26.418Z,100135.63
2023-01-23T07:42:52.893Z,100142.50
2023-01-23T07:45:19.353Z,100148.53
2023-01-23T07:47:45.957Z,100142.56
2023-01-23T07:50:15.056Z,100140.81
2023-01-23T07:52:41.547Z,100141.72
2023-01-23T07:55:08.518Z,100146.94
2023-01-23T07:57:35.098Z,100150.56
2023-01-23T08:00:01.825Z,100150.59
2023-01-23T08:02:28.443Z,100156.59
2023-01-23T08:04:54.928Z,100151.44
2023-01-23T08:07:21.468Z,100151.44
2023-01-23T08:09:47.997Z,100145.28
2023-01-23T08:12:14.531Z,100148.81
2023-01-23T08:14:41.213Z,100149.66
2023-01-23T08:17:07.724Z,100142.66
2023-01-23T08:19:34.183Z,100144.31
2023-01-23T08:22:00.690Z,100153.81
2023-01-23T08:24:27.203Z,100149.41
2023-01-23T08:26:53.672Z,100149.34
2023-01-23T08:29:20.197Z,100152.88
2023-01-23T08:31:46.806Z,100151.97
2023-01-23T08:34:13.492Z,100155.47
2023-01-23T08:36:40.035Z,100156.25
2023-01-23T08:39:06.524Z,100159.66
2023-01-23T08:41:33.074Z,100165.16
2023-01-23T08:44:01.641Z,100165.13
2023-01-23T08:46:29.429Z,100168.47
2023-01-23T08:48:56.113Z,100171.88
2023-01-23T08:51:22.709Z,100172.03
2023-01-23T08:53:53.119Z,100174.50
2023-01-23T08:56:23.108Z,100170.78
2023-01-23T08:58:50.928Z,100175.91
2023-01-23T09:01:24.389Z,100174.19
2023-01-23T09:03:51.259Z,100183.69
2023-01-23T09:06:21.429Z,100181.31
2023-01-23T09:08:48.066Z,100190.03
2023-01-23T09:11:16.107Z,100190.28
2023-01-23T09:13:42.976Z,100198.03
2023-01-23T09:16:10.238Z,100196.22
2023-01-23T09:18:37.304Z,100189.16
2023-01-23T09:21:11.291Z,100193.47
2023-01-23T09:23:38.326Z,100196.03
2023-01-23T09:26:08.827Z,100202.84
2023-01-23T09:28:37.268Z,100195.81
2023-01-23T09:31:07.257Z,100200.16
2023-01-23T09:33:34.928Z,100206.38
2023-01-23T09:36:02.303Z,100207.25
2023-01-23T09:38:28.965Z,100198.56
2023-01-23T09:40:59.504Z,100204.50
2023-01-23T09:43:47.005Z,100208.63
2023-01-23T09:46:28.573Z,100214.63
2023-01-23T09:49:10.295Z,100211.06
2023-01-23T09:52:05.704Z,100209.69
2023-01-23T09:55:02.031Z,100207.16
2023-01-23T09:57:42.628Z,100208.69
2023-01-23T10:00:25.978Z,100201.66
2023-01-23T10:02:56.771Z,100198.03
2023-01-23T10:05:44.033Z,100210.28
2023-01-23T10:08:36.423Z,100214.75
2023-01-23T10:11:31.079Z,100199.72
2023-01-23T10:14:47.275Z,100197.16
2023-01-23T10:17:44.873Z,100205.81
2023-01-23T10:20:36.888Z,100197.94
2023-01-23T10:23:18.858Z,100205.78
2023-01-23T10:25:46.459Z,100202.28
2023-01-23T10:28:38.731Z,100201.28
2023-01-23T10:31:26.288Z,100206.53
2023-01-23T10:34:07.364Z,100196.13
2023-01-23T10:37:00.456Z,100208.38
2023-01-23T10:39:40.670Z,100204.75
2023-01-23T10:42:13.720Z,100213.38
2023-01-23T10:44:40.315Z,100215.91
2023-01-23T10:47:24.181Z,100208.06
2023-01-23T10:49:51.225Z,100214.09
2023-01-23T10:52:36.566Z,100213.50
2023-01-23T10:55:30.997Z,100210.09
2023-01-23T10:58:03.762Z,100207.25
2023-01-23T11:00:39.164Z,100216.88
2023-01-23T11:03:20.975Z,100215.22
2023-01-23T11:06:16.330Z,100208.25
2023-01-23T11:09:04.691Z,100204.69
2023-01-23T11:11:33.128Z,100194.41
2023-01-23T11:14:13.752Z,100184.75
2023-01-23T11:16:40.692Z,100188.16
2023-01-23T11:19:07.032Z,100187.16
2023-01-23T11:21:37.613Z,100187.94
2023-01-23T11:24:08.230Z,100187.19
2023-01-23T11:26:38.278Z,100191.59
2023-01-23T11:29:25.781Z,100186.31
2023-01-23T11:32:05.693Z,100179.19
2023-01-23T11:34:44.120Z,100170.44
2023-01-23T11:37:28.102Z,100176.47
2023-01-23T11:40:18.617Z,100178.19
2023-01-23T11:42:46.467Z,100176.44
2023-01-23T11:45:43.635Z,100174.56
2023-01-23T11:48:36.168Z,100175.78
2023-01-23T11:51:24.517Z,100184.63
2023-01-23T11:54:18.468Z,100181.13
2023-01-23T11:57:18.560Z,100177.22
2023-01-23T12:00:13.127Z,100167.13
2023-01-23T12:03:21.502Z,100168.00
2023-01-23T12:06:20.540Z,100165.38
2023-01-23T12:09:12.346Z,100163.63
2023-01-23T12:11:57.209Z,100159.09
2023-01-23T12:14:42.547Z,100159.78
2023-01-23T12:17:27.047Z,100159.94
2023-01-23T12:20:18.951Z,100153.84
2023-01-23T12:23:18.675Z,100146.81
2023-01-23T12:26:11.875Z,100147.88
2023-01-23T12:28:44.156Z,100146.94
2023-01-23T12:31:47.324Z,100145.81
2023-01-23T12:34:19.429Z,100157.75
2023-01-23T12:37:29.883Z,100154.28
2023-01-23T12:40:33.937Z,100156.06
2023-01-23T12:43:32.438Z,100157.25
2023-01-23T12:46:11.304Z,100155.78
2023-01-23T12:49:15.300Z,100151.19
2023-01-23T12:51:50.708Z,100158.88
2023-01-23T12:54:35.941Z,100164.84
2023-01-23T12:57:06.259Z,100163.81
2023-01-23T12:59:55.593Z,100167.19
2023-01-23T13:02:55.279Z,100160.34
2023-01-23T13:05:52.855Z,100170.88
2023-01-23T13:09:00.119Z,100165.59
2023-01-23T13:11:53.285Z,100155.13
2023-01-23T13:14:36.839Z,100168.84
2023-01-23T13:17:38.442Z,100164.59
2023-01-23T13:20:40.492Z,100163.16
2023-01-23T13:23:30.231Z,100157.56
2023-01-23T13:26:15.425Z,100151.91
2023-01-23T13:28:56.731Z,100158.09
2023-01-23T13:31:47.082Z,100157.22
2023-01-23T13:34:16.732Z,100164.78
2023-01-23T13:36:48.742Z,100170.88
2023-01-23T13:39:18.265Z,100176.03
2023-01-23T13:41:47.740Z,100174.94
2023-01-23T13:44:27.094Z,100172.63
2023-01-23T14:22:36.633Z,100185.13
2023-01-23T14:25:03.923Z,100191.09
2023-01-23T14:27:52.124Z,100180.09
2023-01-23T14:30:26.790Z,100179.34
2023-01-23T14:32:53.716Z,100180.31
2023-01-23T14:35:31.277Z,100177.75
2023-01-23T14:38:06.452Z,100182.22
2023-01-23T14:40:48.934Z,100184.75
2023-01-23T14:43:26.625Z,100182.22
2023-01-23T14:46:02.799Z,100186.53
2023-01-23T14:48:36.512Z,100186.44
2023-01-23T14:51:24.619Z,100193.44
2023-01-23T14:54:01.763Z,100201.31
2023-01-23T14:56:37.762Z,100194.44
2023-01-23T14:59:23.185Z,100193.47
2023-01-23T15:02:05.284Z,100189.91
2023-01-23T15:04:36.807Z,100189.81
2023-01-23T15:07:03.401Z,100190.75
2023-01-23T15:09:41.436Z,100194.19
2023-01-23T15:12:17.330Z,100190.59
2023-01-23T15:14:45.385Z,100196.59
2023-01-23T15:17:18.243Z,100194.88
2023-01-23T15:19:56.537Z,100197.13
2023-01-23T15:22:30.064Z,100198.97
2023-01-23T15:24:57.186Z,100194.53
2023-01-23T15:27:37.266Z,100203.25
2023-01-23T15:30:44.938Z,100195.50
2023-01-23T15:33:31.795Z,100193.84
2023-01-23T15:36:05.909Z,100198.06
2023-01-23T15:38:33.092Z,100204.16
2023-01-23T15:40:59.870Z,100202.47
2023-01-23T15:43:26.544Z,100192.97
2023-01-23T15:45:53.737Z,100195.47
2023-01-23T15:48:20.492Z,100197.25
2023-01-23T15:50:47.145Z,100197.16
2023-01-23T15:53:14.794Z,100199.78
2023-01-23T15:55:41.431Z,100194.63
2023-01-23T15:58:14.831Z,100197.97
2023-01-23T16:00:41.726Z,100201.44
2023-01-23T16:03:08.430Z,100202.41
2023-01-23T16:05:37.450Z,100207.66
2023-01-23T16:08:09.176Z,100199.84
2023-01-23T16:10:39.124Z,100207.94
2023-01-23T16:13:07.514Z,100217.47
2023-01-23T16:15:35.929Z,100214.88
2023-01-23T16:18:04.506Z,100208.97
2023-01-23T16:20:45.140Z,100208.97
2023-01-23T16:23:31.288Z,100208.03
2023-01-23T16:26:02.629Z,100218.44
2023-01-23T16:28:30.057Z,100218.44
2023-01-23T16:30:56.571Z,100215.03
2023-01-23T16:33:23.231Z,100215.94
2023-01-23T16:35:51.441Z,100220.25
2023-01-23T16:38:27.169Z,100220.41
2023-01-23T16:40:56.676Z,100222.25
2023-01-23T16:43:23.810Z,100216.16
2023-01-23T16:45:54.219Z,100221.22
2023-01-23T16:48:27.080Z,100214.28
2023-01-23T16:51:03.971Z,100210.94
2023-01-23T16:53:40.736Z,100210.06
2023-01-23T16:56:14.729Z,100212.13
2023-01-23T16:58:41.893Z,100199.00
2023-01-23T17:01:22.901Z,100199.72
2023-01-23T17:03:57.661Z,100204.91
2023-01-23T17:06:24.201Z,100196.13
2023-01-23T17:08:52.287Z,100188.31
2023-01-23T17:11:26.579Z,100194.34
2023-01-23T17:14:00.624Z,100183.72
2023-01-23T17:16:28.313Z,100180.09
2023-01-23T17:18:59.118Z,100168.81
2023-01-23T17:21:33.586Z,100176.66
2023-01-23T17:24:00.471Z,100171.31
2023-01-23T17:26:27.194Z,100166.97
2023-01-23T17:28:54.000Z,100170.47
2023-01-23T17:31:26.523Z,100168.69
2023-01-23T17:33:53.670Z,100174.81
2023-01-23T17:36:20.190Z,100161.88
2023-01-23T17:38:46.947Z,100161.09
2023-01-23T17:41:15.818Z,100161.13
2023-01-23T17:43:44.287Z,100163.66
2023-01-23T17:46:29.599Z,100169.06
2023-01-23T17:48:57.221Z,100176.72
2023-01-23T17:51:25.759Z,100191.38
2023-01-23T17:53:53.042Z,100195.97
2023-01-23T17:56:19.556Z,100198.53
2023-01-23T17:58:46.159Z,100194.28
2023-01-23T18:01:22.176Z,100194.41
2023-01-23T18:03:51.384Z,100193.50
2023-01-23T18:06:19.181Z,100189.91
2023-01-23T18:08:46.038Z,100180.25
2023-01-23T18:11:24.149Z,100186.28
2023-01-23T18:14:33.696Z,100188.09
2023-01-23T18:17:00.578Z,100193.16
2023-01-23T18:19:27.615Z,100192.34
2023-01-23T18:21:57.217Z,100185.41
2023-01-23T18:24:29.897Z,100190.72
2023-01-23T18:27:21.633Z,100197.59
2023-01-23T18:30:44.990Z,100192.44
2023-01-23T18:33:47.947Z,100196.72
2023-01-23T18:36:55.579Z,100196.97
2023-01-23T18:39:47.021Z,100206.53
2023-01-23T18:42:31.992Z,100208.34
2023-01-23T18:45:20.686Z,100212.72
2023-01-23T18:47:53.551Z,100203.03
2023-01-23T18:50:22.880Z,100206.66
2023-01-23T18:53:24.348Z,100203.22
2023-01-23T18:56:30.417Z,100205.81
2023-01-23T18:59:16.139Z,100202.31
2023-01-23T19:01:53.706Z,100197.81
2023-01-23T19:04:40.347Z,100198.81
2023-01-23T19:07:18.983Z,100201.44
2023-01-23T19:09:47.623Z,100195.16
2023-01-23T19:12:29.059Z,100195.75
2023-01-23T19:15:21.938Z,100197.56
2023-01-23T19:18:18.704Z,100200.03
2023-01-23T19:21:14.473Z,100198.63
2023-01-23T19:23:57.690Z,100198.63
2023-01-23T19:26:33.027Z,100198.63
2023-01-23T19:29:19.120Z,100193.28
2023-01-23T19:32:02.947Z,100200.56
2023-01-23T19:34:30.485Z,100195.19
2023-01-23T19:36:57.013Z,100208.03
2023-01-23T19:39:23.553Z,100204.50
2023-01-23T19:41:50.473Z,100194.06
2023-01-23T19:44:20.171Z,100198.56
2023-01-23T19:46:47.497Z,100201.09
2023-01-23T19:49:14.145Z,100200.19
2023-01-23T19:51:41.797Z,100202.69
2023-01-23T19:54:13.176Z,100206.19
2023-01-23T19:56:39.775Z,100205.28
2023-01-23T19:59:07.423Z,100213.19
2023-01-23T20:01:45.410Z,100218.50
2023-01-23T20:04:22.126Z,100218.66
2023-01-23T20:06:51.610Z,100221.38
2023-01-23T20:09:18.239Z,100219.47
2023-01-23T20:11:46.443Z,100224.56
2023-01-23T20:14:12.979Z,100234.28
2023-01-23T20:16:42.577Z,100240.50
2023-01-23T20:19:15.581Z,100247.34
2023-01-23T20:21:43.010Z,100244.66
2023-01-23T20:24:09.587Z,100242.94
2023-01-23T20:26:36.799Z,100248.91
2023-01-23T20:29:04.986Z,100240.97
2023-01-23T20:31:32.833Z,100253.25
2023-01-23T20:33:59.697Z,100254.94
2023-01-23T20:36:26.250Z,100253.16
2023-01-23T20:38:52.759Z,100253.22
2023-01-23T20:41:20.474Z,100254.91
2023-01-23T20:43:47.879Z,100254.88
2023-01-23T20:46:16.771Z,100251.25
2023-01-23T20:48:45.137Z,100256.53
2023-01-23T20:51:14.300Z,100260.06
2023-01-23T20:53:41.562Z,100255.75
2023-01-23T20:56:18.579Z,100253.31
2023-01-23T20:59:07.621Z,100257.50
2023-01-23T21:01:56.660Z,100260.06
2023-01-23T21:04:28.409Z,100256.59
2023-01-23T21:06:55.355Z,100259.34
2023-01-23T21:09:23.038Z,100255.00
2023-01-23T21:11:51.572Z,100243.75
2023-01-23T21:14:19.412Z,100255.94
2023-01-23T21:16:47.129Z,100254.34
2023-01-23T21:19:15.389Z,100255.19
2023-01-23T21:21:42.827Z,100257.72
2023-01-23T21:24:10.030Z,100256.91
2023-01-23T21:26:37.092Z,100257.75
2023-01-23T21:29:04.710Z,100265.59
2023-01-23T21:31:36.137Z,100254.28
2023-01-23T21:34:06.939Z,100253.28
2023-01-23T21:36:34.659Z,100255.75
2023-01-23T21:39:01.973Z,100253.16
2023-01-23T21:41:28.457Z,100249.69
2023-01-23T21:43:55.058Z,100251.34
2023-01-23T21:46:21.537Z,100246.16
2023-01-23T21:48:48.120Z,100251.41
2023-01-23T21:51:21.078Z,100260.00
2023-01-23T21:53:50.308Z,100249.53
2023-01-23T21:56:20.905Z,100260.03
2023-01-23T21:58:48.414Z,100263.50
2023-01-23T22:01:42.506Z,100246.06
2023-01-23T22:04:13.314Z,100256.44
2023-01-23T22:06:43.135Z,100259.91
2023-01-23T22:09:15.387Z,100252.09
2023-01-23T22:11:42.060Z,100255.63
2023-01-23T22:14:08.503Z,100252.28
2023-01-23T22:16:51.145Z,100255.13
2023-01-23T22:19:24.594Z,100259.59
2023-01-23T22:21:53.009Z,100251.63
2023-01-23T22:24:19.765Z,100253.31
2023-01-23T22:26:46.294Z,100247.97
2023-01-23T22:29:13.933Z,100256.53
2023-01-23T22:31:40.951Z,100258.25
2023-01-23T22:34:07.577Z,100254.69
2023-01-23T22:36:34.359Z,100252.91
2023-01-23T22:39:00.885Z,100247.72
2023-01-23T22:41:28.448Z,100249.41
2023-01-23T22:43:59.035Z,100242.50
2023-01-23T22:46:25.662Z,100236.47
2023-01-23T22:48:52.204Z,100243.41
2023-01-23T22:51:24.687Z,100242.63
2023-01-23T22:53:53.659Z,100236.56
2023-01-23T22:56:21.516Z,100243.63
2023-01-23T22:58:50.343Z,100245.44
2023-01-23T23:01:18.433Z,100248.91
2023-01-23T23:03:46.074Z,100247.25
2023-01-23T23:06:16.027Z,100251.66
2023-01-23T23:08:47.131Z,100257.69
2023-01-23T23:11:28.020Z,100255.91
2023-01-23T23:13:56.654Z,100260.19
2023-01-23T23:16:27.093Z,100251.34
2023-01-23T23:18:56.207Z,100257.59
2023-01-23T23:21:28.545Z,100257.56
2023-01-23T23:23:59.755Z,100262.72
2023-01-23T23:26:29.943Z,100264.47
2023-01-23T23:28:56.825Z,100255.63
2023-01-23T23:31:23.438Z,100260.91
2023-01-23T23:33:50.252Z,100254.91
2023-01-23T23:36:17.401Z,100258.34
2023-01-23T23:38:44.214Z,100263.66
2023-01-23T23:41:16.236Z,100256.78
2023-01-23T23:43:43.966Z,100251.53
2023-01-23T23:46:11.797Z,100246.41
2023-01-23T23:48:39.787Z,100249.00
2023-01-23T23:51:09.530Z,100242.25
2023-01-23T23:53:36.886Z,100244.06
2023-01-23T23:56:05.451Z,100255.34
2023-01-23T23:58:34.938Z,100244.84
